sensor_id;sensor_type;location;lat;lon;timestamp;pressure;altitude;pressure_sealevel;temperature;humidity
6853;BME280;3465;42.144;24.722;2023-01-25T00:00:04;143378.41;;;1.80;100.00
6853;BME280;3465;42.144;24.722;2023-01-25T00:02:29;143447.94;;;2.08;100.00
6853;BME280;3465;42.144;24.722;2023-01-25T00:04:55;143472.81;;;2.18;100.00
6853;BME280;3465;42.144;24.722;2023-01-25T00:07:20;143467.81;;;2.16;100.00
6853;BME280;3465;42.144;24.722;2023-01-25T00:09:46;143440.50;;;2.05;100.00
6853;BME280;3465;42.144;24.722;2023-01-25T00:12:11;143450.47;;;2.09;100.00
6853;BME280;3465;42.144;24.722;2023-01-25T00:14:36;143452.94;;;2.10;100.00
6853;BME280;3465;42.144;24.722;2023-01-25T00:17:02;143438.03;;;2.04;100.00
6853;BME280;3465;42.144;24.722;2023-01-25T00:19:28;143442.97;;;2.06;100.00
6853;BME280;3465;42.144;24.722;2023-01-25T00:21:53;143457.91;;;2.12;100.00
6853;BME280;3465;42.144;24.722;2023-01-25T00:24:18;143434.31;;;2.02;100.00
6853;BME280;3465;42.144;24.722;2023-01-25T00:26:47;143429.31;;;2.00;100.00
6853;BME280;3465;42.144;24.722;2023-01-25T00:29:13;143438.03;;;2.04;100.00
6853;BME280;3465;42.144;24.722;2023-01-25T00:31:49;143418.16;;;1.96;100.00
6853;BME280;3465;42.144;24.722;2023-01-25T00:39:27;143405.72;;;1.91;100.00
6853;BME280;3465;42.144;24.722;2023-01-25T00:41:53;143457.91;;;2.12;100.00
6853;BME280;3465;42.144;24.722;2023-01-25T00:44:19;143467.81;;;2.16;100.00
6853;BME280;3465;42.144;24.722;2023-01-25T00:46:45;143474.06;;;2.18;100.00
6853;BME280;3465;42.144;24.722;2023-01-25T00:49:19;143419.34;;;1.96;100.00
6853;BME280;3465;42.144;24.722;2023-01-25T00:51:46;143446.69;;;2.07;100.00
6853;BME280;3465;42.144;24.722;2023-01-25T00:54:11;143457.91;;;2.12;100.00
6853;BME280;3465;42.144;24.722;2023-01-25T00:56:37;143459.13;;;2.12;100.00
6853;BME280;3465;42.144;24.722;2023-01-25T00:59:02;143449.19;;;2.08;100.00
6853;BME280;3465;42.144;24.722;2023-01-25T01:01:27;143456.66;;;2.11;100.00
6853;BME280;3465;42.144;24.722;2023-01-25T01:03:53;143460.38;;;2.13;100.00
6853;BME280;3465;42.144;24.722;2023-01-25T01:06:18;143477.78;;;2.20;100.00
6853;BME280;3465;42.144;24.722;2023-01-25T01:08:44;143475.28;;;2.19;100.00
6853;BME280;3465;42.144;24.722;2023-01-25T01:11:11;143480.25;;;2.21;100.00
6853;BME280;3465;42.144;24.722;2023-01-25T01:13:38;143462.84;;;2.14;100.00
6853;BME280;3465;42.144;24.722;2023-01-25T01:16:06;143471.53;;;2.17;100.00
6853;BME280;3465;42.144;24.722;2023-01-25T01:18:40;143444.22;;;2.06;100.00
6853;BME280;3465;42.144;24.722;2023-01-25T01:21:06;143452.94;;;2.10;100.00
6853;BME280;3465;42.144;24.722;2023-01-25T01:23:33;143445.47;;;2.07;100.00
6853;BME280;3465;42.144;24.722;2023-01-25T01:25:59;143430.59;;;2.01;100.00
6853;BME280;3465;42.144;24.722;2023-01-25T01:28:27;143441.75;;;2.05;100.00
6853;BME280;3465;42.144;24.722;2023-01-25T01:30:52;143445.47;;;2.07;100.00
6853;BME280;3465;42.144;24.722;2023-01-25T01:33:18;143447.94;;;2.08;100.00
6853;BME280;3465;42.144;24.722;2023-01-25T01:35:43;143414.44;;;1.94;100.00
6853;BME280;3465;42.144;24.722;2023-01-25T01:38:10;143398.28;;;1.88;100.00
6853;BME280;3465;42.144;24.722;2023-01-25T01:40:36;143404.47;;;1.90;100.00
6853;BME280;3465;42.144;24.722;2023-01-25T01:43:04;143402.00;;;1.89;100.00
6853;BME280;3465;42.144;24.722;2023-01-25T01:49:02;143409.44;;;1.92;100.00
6853;BME280;3465;42.144;24.722;2023-01-25T01:53:37;143393.28;;;1.86;100.00
6853;BME280;3465;42.144;24.722;2023-01-25T01:56:06;143378.41;;;1.80;100.00
6853;BME280;3465;42.144;24.722;2023-01-25T01:58:33;143399.47;;;1.88;100.00
6853;BME280;3465;42.144;24.722;2023-01-25T02:00:59;143387.06;;;1.83;100.00
6853;BME280;3465;42.144;24.722;2023-01-25T02:03:25;143397.00;;;1.87;100.00
6853;BME280;3465;42.144;24.722;2023-01-25T02:05:56;143402.00;;;1.89;100.00
6853;BME280;3465;42.144;24.722;2023-01-25T02:08:25;143399.47;;;1.88;100.00
6853;BME280;3465;42.144;24.722;2023-01-25T02:10:52;143423.09;;;1.98;100.00
6853;BME280;3465;42.144;24.722;2023-01-25T02:13:18;143361.00;;;1.73;100.00
6853;BME280;3465;42.144;24.722;2023-01-25T02:15:46;143415.63;;;1.95;100.00
6853;BME280;3465;42.144;24.722;2023-01-25T02:18:14;143441.75;;;2.05;100.00
6853;BME280;3465;42.144;24.722;2023-01-25T02:20:50;143434.31;;;2.02;100.00
6853;BME280;3465;42.144;24.722;2023-01-25T02:26:05;143425.59;;;1.99;100.00
6853;BME280;3465;42.144;24.722;2023-01-25T02:28:35;143421.88;;;1.97;100.00
6853;BME280;3465;42.144;24.722;2023-01-25T02:31:04;143411.91;;;1.93;100.00
6853;BME280;3465;42.144;24.722;2023-01-25T02:33:29;143421.88;;;1.97;100.00
6853;BME280;3465;42.144;24.722;2023-01-25T02:38:36;143440.50;;;2.05;100.00
6853;BME280;3465;42.144;24.722;2023-01-25T02:41:10;143434.31;;;2.02;100.00
6853;BME280;3465;42.144;24.722;2023-01-25T02:43:38;143440.50;;;2.05;100.00
6853;BME280;3465;42.144;24.722;2023-01-25T02:46:19;143451.66;;;2.09;100.00
6853;BME280;3465;42.144;24.722;2023-01-25T02:48:47;143431.78;;;2.01;100.00
6853;BME280;3465;42.144;24.722;2023-01-25T02:51:12;143455.38;;;2.11;100.00
6853;BME280;3465;42.144;24.722;2023-01-25T02:53:38;143476.53;;;2.19;100.00
6853;BME280;3465;42.144;24.722;2023-01-25T02:56:03;143480.25;;;2.21;100.00
6853;BME280;3465;42.144;24.722;2023-01-25T02:58:29;143498.88;;;2.28;100.00
6853;BME280;3465;42.144;24.722;2023-01-25T03:00:55;143500.13;;;2.29;100.00
6853;BME280;3465;42.144;24.722;2023-01-25T03:03:22;143488.97;;;2.24;100.00
6853;BME280;3465;42.144;24.722;2023-01-25T03:05:47;143487.72;;;2.24;100.00
6853;BME280;3465;42.144;24.722;2023-01-25T03:08:13;143465.34;;;2.15;100.00
6853;BME280;3465;42.144;24.722;2023-01-25T03:10:39;143474.06;;;2.18;100.00
6853;BME280;3465;42.144;24.722;2023-01-25T03:13:04;143464.09;;;2.14;100.00
6853;BME280;3465;42.144;24.722;2023-01-25T03:15:29;143457.91;;;2.12;100.00
6853;BME280;3465;42.144;24.722;2023-01-25T03:17:55;143450.47;;;2.09;100.00
6853;BME280;3465;42.144;24.722;2023-01-25T03:20:21;143467.81;;;2.16;100.00
6853;BME280;3465;42.144;24.722;2023-01-25T03:22:46;143440.50;;;2.05;100.00
6853;BME280;3465;42.144;24.722;2023-01-25T03:25:12;143462.84;;;2.14;100.00
6853;BME280;3465;42.144;24.722;2023-01-25T03:27:37;143457.91;;;2.12;100.00
6853;BME280;3465;42.144;24.722;2023-01-25T03:30:03;143460.38;;;2.13;100.00
6853;BME280;3465;42.144;24.722;2023-01-25T03:32:28;143452.94;;;2.10;100.00
6853;BME280;3465;42.144;24.722;2023-01-25T03:34:54;143442.97;;;2.06;100.00
6853;BME280;3465;42.144;24.722;2023-01-25T03:37:19;143447.94;;;2.08;100.00
6853;BME280;3465;42.144;24.722;2023-01-25T03:39:44;143444.22;;;2.06;100.00
6853;BME280;3465;42.144;24.722;2023-01-25T03:42:10;143451.66;;;2.09;100.00
6853;BME280;3465;42.144;24.722;2023-01-25T03:44:35;143430.59;;;2.01;100.00
6853;BME280;3465;42.144;24.722;2023-01-25T03:47:01;143423.09;;;1.98;100.00
6853;BME280;3465;42.144;24.722;2023-01-25T03:49:26;143423.09;;;1.98;100.00
6853;BME280;3465;42.144;24.722;2023-01-25T03:51:52;143420.63;;;1.97;100.00
6853;BME280;3465;42.144;24.722;2023-01-25T03:54:17;143442.97;;;2.06;100.00
6853;BME280;3465;42.144;24.722;2023-01-25T03:56:43;143433.03;;;2.02;100.00
6853;BME280;3465;42.144;24.722;2023-01-25T03:59:10;143419.34;;;1.96;100.00
6853;BME280;3465;42.144;24.722;2023-01-25T04:01:35;143425.59;;;1.99;100.00
6853;BME280;3465;42.144;24.722;2023-01-25T04:04:01;143430.59;;;2.01;100.00
6853;BME280;3465;42.144;24.722;2023-01-25T04:06:26;143419.34;;;1.96;100.00
6853;BME280;3465;42.144;24.722;2023-01-25T04:08:52;143428.06;;;2.00;100.00
6853;BME280;3465;42.144;24.722;2023-01-25T04:11:17;143411.91;;;1.93;100.00
6853;BME280;3465;42.144;24.722;2023-01-25T04:13:42;143425.59;;;1.99;100.00
6853;BME280;3465;42.144;24.722;2023-01-25T04:16:09;143420.63;;;1.97;100.00
6853;BME280;3465;42.144;24.722;2023-01-25T04:18:38;143405.72;;;1.91;100.00
6853;BME280;3465;42.144;24.722;2023-01-25T04:21:04;143377.13;;;1.79;100.00
6853;BME280;3465;42.144;24.722;2023-01-25T04:23:30;143410.69;;;1.93;100.00
6853;BME280;3465;42.144;24.722;2023-01-25T04:25:57;143433.03;;;2.02;100.00
6853;BME280;3465;42.144;24.722;2023-01-25T04:28:23;143387.06;;;1.83;100.00
6853;BME280;3465;42.144;24.722;2023-01-25T04:30:49;143436.78;;;2.03;100.00
6853;BME280;3465;42.144;24.722;2023-01-25T04:33:15;143370.94;;;1.77;100.00
6853;BME280;3465;42.144;24.722;2023-01-25T04:35:41;143395.75;;;1.87;100.00
6853;BME280;3465;42.144;24.722;2023-01-25T04:38:06;143400.75;;;1.89;100.00
6853;BME280;3465;42.144;24.722;2023-01-25T04:40:32;143405.72;;;1.91;100.00
6853;BME280;3465;42.144;24.722;2023-01-25T04:42:57;143390.81;;;1.85;100.00
6853;BME280;3465;42.144;24.722;2023-01-25T04:45:24;143388.31;;;1.84;100.00
6853;BME280;3465;42.144;24.722;2023-01-25T04:48:00;143377.13;;;1.79;100.00
6853;BME280;3465;42.144;24.722;2023-01-25T04:50:26;143388.31;;;1.84;100.00
6853;BME280;3465;42.144;24.722;2023-01-25T04:52:52;143390.81;;;1.85;100.00
6853;BME280;3465;42.144;24.722;2023-01-25T04:55:18;143403.22;;;1.90;100.00
6853;BME280;3465;42.144;24.722;2023-01-25T04:57:44;143333.66;;;1.62;100.00
6853;BME280;3465;42.144;24.722;2023-01-25T05:00:11;143385.84;;;1.83;100.00
6853;BME280;3465;42.144;24.722;2023-01-25T05:02:36;143393.28;;;1.86;100.00
6853;BME280;3465;42.144;24.722;2023-01-25T05:05:04;143369.69;;;1.76;100.00
6853;BME280;3465;42.144;24.722;2023-01-25T05:07:29;143383.34;;;1.82;100.00
6853;BME280;3465;42.144;24.722;2023-01-25T05:09:54;143367.19;;;1.75;100.00
6853;BME280;3465;42.144;24.722;2023-01-25T05:12:20;143379.59;;;1.80;100.00
6853;BME280;3465;42.144;24.722;2023-01-25T05:14:45;143365.97;;;1.75;100.00
6853;BME280;3465;42.144;24.722;2023-01-25T05:17:11;143353.53;;;1.70;100.00
6853;BME280;3465;42.144;24.722;2023-01-25T05:19:36;143361.00;;;1.73;100.00
6853;BME280;3465;42.144;24.722;2023-01-25T05:22:02;143353.53;;;1.70;100.00
6853;BME280;3465;42.144;24.722;2023-01-25T05:24:32;143365.97;;;1.75;100.00
6853;BME280;3465;42.144;24.722;2023-01-25T05:26:58;143375.88;;;1.79;100.00
6853;BME280;3465;42.144;24.722;2023-01-25T05:29:40;143354.78;;;1.70;100.00
6853;BME280;3465;42.144;24.722;2023-01-25T05:32:09;143370.94;;;1.77;100.00
6853;BME280;3465;42.144;24.722;2023-01-25T05:34:35;143368.44;;;1.76;100.00
6853;BME280;3465;42.144;24.722;2023-01-25T05:37:01;143383.34;;;1.82;100.00
6853;BME280;3465;42.144;24.722;2023-01-25T05:39:28;143354.78;;;1.70;100.00
6853;BME280;3465;42.144;24.722;2023-01-25T05:41:53;143362.25;;;1.73;100.00
6853;BME280;3465;42.144;24.722;2023-01-25T05:44:18;143378.41;;;1.80;100.00
6853;BME280;3465;42.144;24.722;2023-01-25T05:46:44;143375.88;;;1.79;100.00
6853;BME280;3465;42.144;24.722;2023-01-25T05:49:10;143372.16;;;1.77;100.00
6853;BME280;3465;42.144;24.722;2023-01-25T05:51:36;143348.56;;;1.68;100.00
6853;BME280;3465;42.144;24.722;2023-01-25T05:54:03;143385.84;;;1.83;100.00
6853;BME280;3465;42.144;24.722;2023-01-25T05:56:29;143363.44;;;1.74;100.00
6853;BME280;3465;42.144;24.722;2023-01-25T05:58:55;143374.69;;;1.78;100.00
6853;BME280;3465;42.144;24.722;2023-01-25T06:01:22;143385.84;;;1.83;100.00
6853;BME280;3465;42.144;24.722;2023-01-25T06:03:48;143389.56;;;1.84;100.00
6853;BME280;3465;42.144;24.722;2023-01-25T06:06:13;143392.03;;;1.85;100.00
6853;BME280;3465;42.144;24.722;2023-01-25T06:08:39;143399.47;;;1.88;100.00
6853;BME280;3465;42.144;24.722;2023-01-25T06:11:12;143264.09;;;1.33;100.00
6853;BME280;3465;42.144;24.722;2023-01-25T06:13:38;143388.31;;;1.84;100.00
6853;BME280;3465;42.144;24.722;2023-01-25T06:16:03;143377.13;;;1.79;100.00
6853;BME280;3465;42.144;24.722;2023-01-25T06:18:30;143382.13;;;1.81;100.00
6853;BME280;3465;42.144;24.722;2023-01-25T06:20:56;143336.13;;;1.63;100.00
6853;BME280;3465;42.144;24.722;2023-01-25T06:23:22;143362.25;;;1.73;100.00
6853;BME280;3465;42.144;24.722;2023-01-25T06:25:48;143364.72;;;1.74;100.00
6853;BME280;3465;42.144;24.722;2023-01-25T06:28:13;143378.41;;;1.80;100.00
6853;BME280;3465;42.144;24.722;2023-01-25T06:30:38;143378.41;;;1.80;100.00
6853;BME280;3465;42.144;24.722;2023-01-25T06:33:04;143378.41;;;1.80;100.00
6853;BME280;3465;42.144;24.722;2023-01-25T06:35:33;143383.34;;;1.82;100.00
6853;BME280;3465;42.144;24.722;2023-01-25T06:37:59;143390.81;;;1.85;100.00
6853;BME280;3465;42.144;24.722;2023-01-25T06:40:26;143384.59;;;1.82;100.00
6853;BME280;3465;42.144;24.722;2023-01-25T06:42:52;143367.19;;;1.75;100.00
6853;BME280;3465;42.144;24.722;2023-01-25T06:45:18;143399.47;;;1.88;100.00
6853;BME280;3465;42.144;24.722;2023-01-25T06:47:43;143415.63;;;1.95;100.00
6853;BME280;3465;42.144;24.722;2023-01-25T06:50:09;143424.34;;;1.98;100.00
6853;BME280;3465;42.144;24.722;2023-01-25T06:52:35;143406.94;;;1.91;100.00
6853;BME280;3465;42.144;24.722;2023-01-25T06:55:02;143430.59;;;2.01;100.00
6853;BME280;3465;42.144;24.722;2023-01-25T06:57:27;143452.94;;;2.10;100.00
6853;BME280;3465;42.144;24.722;2023-01-25T06:59:53;143465.34;;;2.15;100.00
6853;BME280;3465;42.144;24.722;2023-01-25T07:02:19;143459.13;;;2.12;100.00
6853;BME280;3465;42.144;24.722;2023-01-25T07:04:44;143476.53;;;2.19;100.00
6853;BME280;3465;42.144;24.722;2023-01-25T07:07:10;143475.28;;;2.19;100.00
6853;BME280;3465;42.144;24.722;2023-01-25T07:09:35;143462.84;;;2.14;100.00
6853;BME280;3465;42.144;24.722;2023-01-25T07:12:01;143433.03;;;2.02;100.00
6853;BME280;3465;42.144;24.722;2023-01-25T07:14:29;143446.69;;;2.07;100.00
6853;BME280;3465;42.144;24.722;2023-01-25T07:16:54;143456.66;;;2.11;100.00
6853;BME280;3465;42.144;24.722;2023-01-25T07:19:20;143409.44;;;1.92;100.00
6853;BME280;3465;42.144;24.722;2023-01-25T07:21:45;143447.94;;;2.08;100.00
6853;BME280;3465;42.144;24.722;2023-01-25T07:24:13;143457.91;;;2.12;100.00
6853;BME280;3465;42.144;24.722;2023-01-25T07:26:39;143450.47;;;2.09;100.00
6853;BME280;3465;42.144;24.722;2023-01-25T07:29:05;143405.72;;;1.91;100.00
6853;BME280;3465;42.144;24.722;2023-01-25T07:31:30;143450.47;;;2.09;100.00
6853;BME280;3465;42.144;24.722;2023-01-25T07:33:56;143471.53;;;2.17;100.00
6853;BME280;3465;42.144;24.722;2023-01-25T07:36:22;143480.25;;;2.21;100.00
6853;BME280;3465;42.144;24.722;2023-01-25T07:38:52;143487.72;;;2.24;100.00
6853;BME280;3465;42.144;24.722;2023-01-25T07:41:17;143477.78;;;2.20;100.00
6853;BME280;3465;42.144;24.722;2023-01-25T07:43:43;143455.38;;;2.11;100.00
6853;BME280;3465;42.144;24.722;2023-01-25T07:46:10;143431.78;;;2.01;100.00
6853;BME280;3465;42.144;24.722;2023-01-25T07:48:36;143462.84;;;2.14;100.00
6853;BME280;3465;42.144;24.722;2023-01-25T07:51:04;143451.66;;;2.09;100.00
6853;BME280;3465;42.144;24.722;2023-01-25T07:53:38;143428.06;;;2.00;100.00
6853;BME280;3465;42.144;24.722;2023-01-25T07:56:03;143430.59;;;2.01;100.00
6853;BME280;3465;42.144;24.722;2023-01-25T07:58:29;143460.38;;;2.13;100.00
6853;BME280;3465;42.144;24.722;2023-01-25T08:00:54;143467.81;;;2.16;100.00
6853;BME280;3465;42.144;24.722;2023-01-25T08:03:20;143477.78;;;2.20;100.00
6853;BME280;3465;42.144;24.722;2023-01-25T08:05:46;143461.63;;;2.13;100.00
6853;BME280;3465;42.144;24.722;2023-01-25T08:08:12;143436.78;;;2.03;100.00
6853;BME280;3465;42.144;24.722;2023-01-25T08:10:37;143471.53;;;2.17;100.00
6853;BME280;3465;42.144;24.722;2023-01-25T08:13:03;143460.38;;;2.13;100.00
6853;BME280;3465;42.144;24.722;2023-01-25T08:15:29;143472.81;;;2.18;100.00
6853;BME280;3465;42.144;24.722;2023-01-25T08:17:58;143440.50;;;2.05;100.00
6853;BME280;3465;42.144;24.722;2023-01-25T08:20:24;143485.25;;;2.23;100.00
6853;BME280;3465;42.144;24.722;2023-01-25T08:22:51;143470.34;;;2.17;100.00
6853;BME280;3465;42.144;24.722;2023-01-25T08:25:16;143477.78;;;2.20;100.00
6853;BME280;3465;42.144;24.722;2023-01-25T08:27:41;143486.44;;;2.23;100.00
6853;BME280;3465;42.144;24.722;2023-01-25T08:30:07;143445.47;;;2.07;100.00
6853;BME280;3465;42.144;24.722;2023-01-25T08:32:34;143471.53;;;2.17;100.00
6853;BME280;3465;42.144;24.722;2023-01-25T08:35:00;143457.91;;;2.12;100.00
6853;BME280;3465;42.144;24.722;2023-01-25T08:37:25;143433.03;;;2.02;100.00
6853;BME280;3465;42.144;24.722;2023-01-25T08:39:54;143444.22;;;2.06;100.00
6853;BME280;3465;42.144;24.722;2023-01-25T08:42:22;143452.94;;;2.10;100.00
6853;BME280;3465;42.144;24.722;2023-01-25T08:44:47;143501.41;;;2.29;100.00
6853;BME280;3465;42.144;24.722;2023-01-25T08:47:13;143500.13;;;2.29;100.00
6853;BME280;3465;42.144;24.722;2023-01-25T08:49:38;143482.72;;;2.22;100.00
6853;BME280;3465;42.144;24.722;2023-01-25T08:52:04;143487.72;;;2.24;100.00
6853;BME280;3465;42.144;24.722;2023-01-25T08:54:29;143523.75;;;2.38;100.00
6853;BME280;3465;42.144;24.722;2023-01-25T08:56:55;143510.09;;;2.33;100.00
6853;BME280;3465;42.144;24.722;2023-01-25T08:59:20;143495.16;;;2.27;100.00
6853;BME280;3465;42.144;24.722;2023-01-25T09:01:46;143492.69;;;2.26;100.00
6853;BME280;3465;42.144;24.722;2023-01-25T09:04:11;143498.88;;;2.28;100.00
6853;BME280;3465;42.144;24.722;2023-01-25T09:06:36;143516.31;;;2.35;100.00
6853;BME280;3465;42.144;24.722;2023-01-25T09:09:02;143516.31;;;2.35;100.00
6853;BME280;3465;42.144;24.722;2023-01-25T09:11:28;143395.75;;;1.87;100.00
6853;BME280;3465;42.144;24.722;2023-01-25T09:13:54;143483.97;;;2.22;100.00
6853;BME280;3465;42.144;24.722;2023-01-25T09:16:22;143469.09;;;2.16;100.00
6853;BME280;3465;42.144;24.722;2023-01-25T09:18:53;143503.88;;;2.30;100.00
6853;BME280;3465;42.144;24.722;2023-01-25T09:21:19;143512.56;;;2.34;100.00
6853;BME280;3465;42.144;24.722;2023-01-25T09:23:49;143546.09;;;2.47;100.00
6853;BME280;3465;42.144;24.722;2023-01-25T09:26:15;143563.53;;;2.54;100.00
6853;BME280;3465;42.144;24.722;2023-01-25T09:28:41;143577.22;;;2.60;100.00
6853;BME280;3465;42.144;24.722;2023-01-25T09:31:08;143567.25;;;2.56;100.00
6853;BME280;3465;42.144;24.722;2023-01-25T09:33:37;143547.38;;;2.48;100.00
6853;BME280;3465;42.144;24.722;2023-01-25T09:36:03;143541.16;;;2.45;100.00
6853;BME280;3465;42.144;24.722;2023-01-25T09:38:29;143517.56;;;2.36;100.00
6853;BME280;3465;42.144;24.722;2023-01-25T09:46:01;143583.41;;;2.62;100.00
6853;BME280;3465;42.144;24.722;2023-01-25T09:48:41;143573.50;;;2.58;100.00
6853;BME280;3465;42.144;24.722;2023-01-25T09:53:42;143562.28;;;2.54;100.00
6853;BME280;3465;42.144;24.722;2023-01-25T09:56:32;143579.69;;;2.61;100.00
6853;BME280;3465;42.144;24.722;2023-01-25T09:59:05;143590.88;;;2.65;100.00
6853;BME280;3465;42.144;24.722;2023-01-25T10:01:53;143592.13;;;2.66;100.00
6853;BME280;3465;42.144;24.722;2023-01-25T10:04:23;143585.88;;;2.63;100.00
6853;BME280;3465;42.144;24.722;2023-01-25T10:06:56;143574.69;;;2.59;100.00
6853;BME280;3465;42.144;24.722;2023-01-25T10:09:39;143608.28;;;2.72;100.00
6853;BME280;3465;42.144;24.722;2023-01-25T10:12:21;143574.69;;;2.59;100.00
6853;BME280;3465;42.144;24.722;2023-01-25T10:14:48;143584.69;;;2.63;100.00
6853;BME280;3465;42.144;24.722;2023-01-25T10:17:38;143624.47;;;2.79;100.00
6853;BME280;3465;42.144;24.722;2023-01-25T10:20:14;143619.47;;;2.77;100.00
6853;BME280;3465;42.144;24.722;2023-01-25T10:25:57;143592.13;;;2.66;100.00
6853;BME280;3465;42.144;24.722;2023-01-25T10:33:32;143578.44;;;2.60;100.00
6853;BME280;3465;42.144;24.722;2023-01-25T10:36:00;143670.44;;;2.97;100.00
6853;BME280;3465;42.144;24.722;2023-01-25T10:38:37;143689.13;;;3.05;100.00
6853;BME280;3465;42.144;24.722;2023-01-25T10:41:31;143651.81;;;2.90;100.00
6853;BME280;3465;42.144;24.722;2023-01-25T10:43:54;143682.88;;;3.03;100.00
6853;BME280;3465;42.144;24.722;2023-01-25T10:46:56;143644.34;;;2.87;100.00
6853;BME280;3465;42.144;24.722;2023-01-25T10:49:54;143639.38;;;2.85;100.00
6853;BME280;3465;42.144;24.722;2023-01-25T10:52:28;143653.06;;;2.90;100.00
6853;BME280;3465;42.144;24.722;2023-01-25T10:55:17;143635.63;;;2.83;100.00
6853;BME280;3465;42.144;24.722;2023-01-25T11:00:34;143665.47;;;2.95;100.00
6853;BME280;3465;42.144;24.722;2023-01-25T11:03:01;143644.34;;;2.87;100.00
6853;BME280;3465;42.144;24.722;2023-01-25T11:05:35;143646.81;;;2.88;100.00
6853;BME280;3465;42.144;24.722;2023-01-25T11:08:23;143597.09;;;2.68;100.00
6853;BME280;3465;42.144;24.722;2023-01-25T11:10:49;143610.75;;;2.73;100.00
6853;BME280;3465;42.144;24.722;2023-01-25T11:13:18;143654.28;;;2.91;100.00
6853;BME280;3465;42.144;24.722;2023-01-25T11:15:50;143643.09;;;2.86;100.00
6853;BME280;3465;42.144;24.722;2023-01-25T11:20:47;143681.63;;;3.02;100.00
6853;BME280;3465;42.144;24.722;2023-01-25T11:23:26;143672.97;;;2.99;100.00
6853;BME280;3465;42.144;24.722;2023-01-25T11:25:52;143674.16;;;2.99;100.00
6853;BME280;3465;42.144;24.722;2023-01-25T11:28:22;143654.28;;;2.91;100.00
6853;BME280;3465;42.144;24.722;2023-01-25T11:30:50;143641.84;;;2.86;100.00
6853;BME280;3465;42.144;24.722;2023-01-25T11:33:18;143639.38;;;2.85;100.00
6853;BME280;3465;42.144;24.722;2023-01-25T11:35:58;143669.25;;;2.97;100.00
6853;BME280;3465;42.144;24.722;2023-01-25T11:38:27;143686.63;;;3.04;100.00
6853;BME280;3465;42.144;24.722;2023-01-25T11:41:12;143701.53;;;3.10;100.00
6853;BME280;3465;42.144;24.722;2023-01-25T11:57:53;143732.66;;;3.23;100.00
6853;BME280;3465;42.144;24.722;2023-01-25T12:05:59;143768.75;;;3.37;100.00
6853;BME280;3465;42.144;24.722;2023-01-25T12:11:06;143761.22;;;3.34;100.00
6853;BME280;3465;42.144;24.722;2023-01-25T12:16:54;143748.84;;;3.29;100.00
6853;BME280;3465;42.144;24.722;2023-01-25T12:30:24;143791.13;;;3.46;100.00
6853;BME280;3465;42.144;24.722;2023-01-25T12:33:05;143753.78;;;3.31;100.00
6853;BME280;3465;42.144;24.722;2023-01-25T12:38:07;143669.25;;;2.97;100.00
6853;BME280;3465;42.144;24.722;2023-01-25T12:40:51;143669.25;;;2.97;100.00
6853;BME280;3465;42.144;24.722;2023-01-25T12:43:39;143711.50;;;3.14;100.00
6853;BME280;3465;42.144;24.722;2023-01-25T12:46:16;143704.03;;;3.11;100.00
6853;BME280;3465;42.144;24.722;2023-01-25T12:48:49;143718.97;;;3.17;100.00
6853;BME280;3465;42.144;24.722;2023-01-25T12:51:17;143711.50;;;3.14;100.00
6853;BME280;3465;42.144;24.722;2023-01-25T12:53:48;143684.16;;;3.03;100.00
6853;BME280;3465;42.144;24.722;2023-01-25T13:09:29;143723.94;;;3.19;100.00
6853;BME280;3465;42.144;24.722;2023-01-25T13:12:02;143717.69;;;3.17;100.00
6853;BME280;3465;42.144;24.722;2023-01-25T13:14:36;143718.97;;;3.17;100.00
6853;BME280;3465;42.144;24.722;2023-01-25T13:19:47;143745.06;;;3.28;100.00
6853;BME280;3465;42.144;24.722;2023-01-25T13:22:13;143735.13;;;3.24;100.00
6853;BME280;3465;42.144;24.722;2023-01-25T13:27:29;143726.41;;;3.20;100.00
6853;BME280;3465;42.144;24.722;2023-01-25T13:32:53;143735.13;;;3.24;100.00
6853;BME280;3465;42.144;24.722;2023-01-25T13:38:02;143697.81;;;3.09;100.00
6853;BME280;3465;42.144;24.722;2023-01-25T13:43:26;143695.34;;;3.08;100.00
6853;BME280;3465;42.144;24.722;2023-01-25T13:45:51;143681.63;;;3.02;100.00
6853;BME280;3465;42.144;24.722;2023-01-25T13:48:19;143666.72;;;2.96;100.00
6853;BME280;3465;42.144;24.722;2023-01-25T13:50:48;143689.13;;;3.05;100.00
6853;BME280;3465;42.144;24.722;2023-01-25T13:55:51;143671.69;;;2.98;100.00
6853;BME280;3465;42.144;24.722;2023-01-25T13:58:31;143674.16;;;2.99;100.00
6853;BME280;3465;42.144;24.722;2023-01-25T14:03:28;143686.63;;;3.04;100.00
6853;BME280;3465;42.144;24.722;2023-01-25T14:05:56;143697.81;;;3.09;100.00
6853;BME280;3465;42.144;24.722;2023-01-25T14:08:23;143682.88;;;3.03;100.00
6853;BME280;3465;42.144;24.722;2023-01-25T14:10:50;143614.50;;;2.75;100.00
6853;BME280;3465;42.144;24.722;2023-01-25T14:13:17;143635.63;;;2.83;100.00
6853;BME280;3465;42.144;24.722;2023-01-25T14:15:54;143602.03;;;2.70;100.00
6853;BME280;3465;42.144;24.722;2023-01-25T14:18:21;143572.25;;;2.58;100.00
6853;BME280;3465;42.144;24.722;2023-01-25T14:20:50;143618.22;;;2.76;100.00
6853;BME280;3465;42.144;24.722;2023-01-25T14:23:37;143643.09;;;2.86;100.00
6853;BME280;3465;42.144;24.722;2023-01-25T14:26:10;143639.38;;;2.85;100.00
6853;BME280;3465;42.144;24.722;2023-01-25T14:28:43;143589.66;;;2.65;100.00
6853;BME280;3465;42.144;24.722;2023-01-25T14:31:19;143625.66;;;2.79;100.00
6853;BME280;3465;42.144;24.722;2023-01-25T14:33:45;143620.72;;;2.77;100.00
6853;BME280;3465;42.144;24.722;2023-01-25T14:36:13;143626.94;;;2.80;100.00
6853;BME280;3465;42.144;24.722;2023-01-25T14:38:41;143635.63;;;2.83;100.00
6853;BME280;3465;42.144;24.722;2023-01-25T14:41:23;143630.66;;;2.81;100.00
6853;BME280;3465;42.144;24.722;2023-01-25T14:43:54;143641.84;;;2.86;100.00
6853;BME280;3465;42.144;24.722;2023-01-25T14:46:34;143639.38;;;2.85;100.00
6853;BME280;3465;42.144;24.722;2023-01-25T14:49:08;143630.66;;;2.81;100.00
6853;BME280;3465;42.144;24.722;2023-01-25T14:51:39;143617.00;;;2.76;100.00
6853;BME280;3465;42.144;24.722;2023-01-25T14:54:15;143633.19;;;2.82;100.00